Country
Station

 

Weather  for  Aeropuerto Jose Marti, Rancho-Boyeros, Habana  -  Cuba    Cuba

  
28 °C (82 °F)
    
 
 

Current METAR for Aeropuerto Jose Marti, Rancho-Boyeros, Habana is :

MUHA 181355Z 09008KT 060V120 9000 SCT025 28/24 Q1019

 

This is a report for Aeropuerto Jose Marti, Rancho-Boyeros, Habana - Cuba.
 
The report was made one hour and 3 minutes ago, at 13:55 UTC .
The wind was blowing at a speed of 4.1 meters per second (9.2 miles per hour) from east (090°), varying between east/northeast (060°) and east/southeast (120°).
 
The temperature was 28 °C (82 °F), with a dew-point at 24 °C (75 °F).
The temperature felt like 32 °C (89 °F).
 
The atmospheric pressure was 1019 hPa (30.09 inHg).
The relative humidity was 78.9%.
 
There were scattered clouds at a height of 762 meters (2500 feet).
 
The overall visibility was 9.0 kilometers (5.6 miles).
 

 
 
 
 

Country :   A   B   C   D   E   F   G   H   I   J   K   L   M   N   O   P   Q   R   S   T   U   V   W   Y   Z

 

Site Info  |  Disclaimer  |  Credits  |  Privacy
Contact us  |  Add to favorites
© 2013-2018 METARs - All rights reserved